Time;durP1;ratioP1;P1;durP2;ratioP2;P2;SDS_P1;SDS_P2;PMS_P1;PMS_P2;Temp;Humidity;BMP_temperature;BMP_pressure;BME280_temperature;BME280_humidity;BME280_pressure;Samples;Min_cycle;Max_cycle;Signal;HPM_P1;HPM_P2
2023/11/18 00:00:20;;;;;;;2.35;1.00;;;19.70;66.50;;;;;;5076464;28;20116;-36
2023/11/18 00:02:46;;;;;;;1.03;0.90;;;19.70;66.50;;;;;;5081989;28;20075;-36
2023/11/18 00:05:13;;;;;;;1.42;0.82;;;19.70;66.60;;;;;;5082534;28;20039;-36
2023/11/18 00:07:40;;;;;;;2.03;0.73;;;19.70;66.60;;;;;;5081642;28;20033;-36
2023/11/18 00:10:08;;;;;;;1.10;0.90;;;19.70;66.50;;;;;;5082633;28;20032;-36
2023/11/18 00:12:35;;;;;;;1.15;0.80;;;19.70;66.50;;;;;;5080945;28;20292;-36
2023/11/18 00:15:05;;;;;;;2.20;1.00;;;19.70;66.40;;;;;;5086676;28;20047;-36
2023/11/18 00:17:31;;;;;;;1.20;1.00;;;19.70;66.40;;;;;;5081804;28;20040;-36
2023/11/18 00:19:58;;;;;;;1.38;0.95;;;19.70;66.40;;;;;;5075549;28;20036;-36
2023/11/18 00:22:24;;;;;;;1.48;0.93;;;19.70;66.50;;;;;;5082641;28;20032;-36
2023/11/18 00:24:52;;;;;;;1.67;1.00;;;19.70;66.40;;;;;;5082534;28;20052;-36
2023/11/18 00:27:18;;;;;;;1.75;1.10;;;19.70;66.40;;;;;;5084453;28;20032;-36
2023/11/18 00:29:44;;;;;;;1.63;1.02;;;19.70;66.70;;;;;;5082750;28;20032;-36
2023/11/18 00:32:11;;;;;;;2.25;1.13;;;19.60;66.70;;;;;;5082728;28;20033;-36
2023/11/18 00:34:37;;;;;;;1.42;0.90;;;19.70;66.90;;;;;;5084196;28;20032;-36
2023/11/18 00:37:03;;;;;;;1.35;1.00;;;19.70;66.90;;;;;;5082851;28;20036;-36
2023/11/18 00:39:30;;;;;;;1.40;0.90;;;19.60;66.80;;;;;;5082149;28;20137;-35
2023/11/18 00:41:56;;;;;;;1.60;1.08;;;19.60;66.70;;;;;;5075197;28;20276;-35
2023/11/18 00:44:22;;;;;;;1.48;0.95;;;19.60;66.50;;;;;;5086342;28;20056;-35
2023/11/18 00:46:49;;;;;;;1.52;1.13;;;19.60;66.60;;;;;;5071579;28;20033;-35
2023/11/18 00:49:18;;;;;;;1.65;0.95;;;19.60;66.70;;;;;;5070209;28;20045;-35
2023/11/18 00:51:44;;;;;;;1.63;1.20;;;19.60;66.50;;;;;;5088302;28;20035;-35
2023/11/18 00:54:12;;;;;;;1.45;0.90;;;19.60;66.50;;;;;;5083624;28;20032;-35
2023/11/18 00:56:38;;;;;;;1.70;1.00;;;19.60;66.40;;;;;;5079409;28;20029;-35
2023/11/18 00:59:06;;;;;;;2.53;1.15;;;19.60;66.70;;;;;;5082620;28;20040;-35
2023/11/18 01:01:32;;;;;;;3.15;1.50;;;19.60;66.90;;;;;;5080860;28;20050;-35
2023/11/18 01:03:59;;;;;;;1.73;1.10;;;19.60;66.90;;;;;;5081656;28;20021;-35
2023/11/18 01:06:26;;;;;;;1.13;0.82;;;19.60;66.70;;;;;;5081118;28;20052;-35
2023/11/18 01:08:53;;;;;;;;;;;19.60;66.70;;;;;;5088593;28;20033;-36
2023/11/18 01:11:19;;;;;;;1.58;1.10;;;19.60;66.70;;;;;;5081333;28;19912;-36
2023/11/18 01:13:48;;;;;;;2.63;1.25;;;19.60;66.70;;;;;;5078118;28;20024;-36
2023/11/18 01:16:15;;;;;;;2.22;1.40;;;19.60;66.60;;;;;;5091262;28;20056;-36
2023/11/18 01:18:42;;;;;;;2.35;1.50;;;19.60;66.80;;;;;;5080120;28;20032;-35
2023/11/18 01:21:11;;;;;;;2.30;1.25;;;19.60;66.80;;;;;;5082616;28;20036;-36
2023/11/18 01:23:38;;;;;;;2.25;1.42;;;19.60;66.80;;;;;;5088175;28;20039;-35
2023/11/18 01:26:05;;;;;;;;;;;19.60;66.80;;;;;;5078141;28;20032;-35
2023/11/18 01:28:36;;;;;;;1.30;0.90;;;19.60;66.60;;;;;;5086026;28;19967;-35
2023/11/18 01:31:03;;;;;;;2.13;1.30;;;19.60;66.70;;;;;;5088835;28;20088;-35
2023/11/18 01:33:32;;;;;;;1.80;1.10;;;19.50;66.70;;;;;;5080403;28;20037;-35
2023/11/18 01:35:59;;;;;;;1.55;0.90;;;19.50;66.60;;;;;;5081547;28;20025;-35
2023/11/18 01:38:26;;;;;;;1.33;1.10;;;19.50;66.60;;;;;;5080876;28;20088;-35
2023/11/18 01:40:53;;;;;;;1.77;1.05;;;19.50;66.50;;;;;;5088091;28;20028;-35
2023/11/18 01:43:19;;;;;;;1.92;1.50;;;19.50;66.60;;;;;;5087901;28;20419;-36
2023/11/18 01:45:46;;;;;;;1.88;1.30;;;19.50;66.60;;;;;;5089131;28;20120;-42
2023/11/18 01:48:13;;;;;;;1.60;1.05;;;19.50;66.60;;;;;;5087885;28;20070;-35
2023/11/18 01:50:40;;;;;;;1.75;1.10;;;19.50;66.50;;;;;;5087736;28;20039;-35
2023/11/18 01:53:07;;;;;;;2.05;1.20;;;19.50;66.60;;;;;;5088013;28;20035;-35
2023/11/18 01:55:34;;;;;;;1.73;1.35;;;19.50;66.50;;;;;;5085089;28;20040;-35
2023/11/18 01:58:07;;;;;;;2.35;1.30;;;19.50;66.50;;;;;;5081986;28;20048;-36
2023/11/18 02:00:35;;;;;;;1.52;0.90;;;19.50;66.40;;;;;;5084858;28;20075;-35
2023/11/18 02:03:01;;;;;;;1.92;1.00;;;19.50;66.40;;;;;;5076965;28;20032;-35
2023/11/18 02:05:28;;;;;;;1.88;1.27;;;19.50;66.40;;;;;;5084827;28;20049;-35
2023/11/18 02:07:54;;;;;;;1.95;1.30;;;19.50;66.40;;;;;;5081215;28;20133;-35
2023/11/18 02:10:21;;;;;;;2.63;1.10;;;19.50;66.30;;;;;;5080836;28;20021;-35
2023/11/18 02:12:54;;;;;;;;;;;19.50;66.40;;;;;;5083890;28;20036;-35
2023/11/18 02:15:21;;;;;;;1.67;1.15;;;19.50;66.40;;;;;;5071267;28;19915;-35
2023/11/18 02:17:49;;;;;;;1.50;1.17;;;19.50;66.30;;;;;;5082320;28;20037;-35
2023/11/18 02:20:20;;;;;;;2.15;1.20;;;19.40;66.30;;;;;;5083215;28;20032;-35
2023/11/18 02:22:49;;;;;;;2.28;1.23;;;19.40;66.30;;;;;;5082282;28;20039;-36
2023/11/18 02:25:19;;;;;;;1.58;1.10;;;19.40;66.30;;;;;;5098552;28;20037;-35
2023/11/18 02:27:48;;;;;;;2.80;1.38;;;19.40;66.30;;;;;;5081898;28;20459;-35
2023/11/18 02:30:17;;;;;;;1.77;1.38;;;19.40;66.30;;;;;;5082693;28;20041;-35
2023/11/18 02:33:18;;;;;;;2.00;1.30;;;19.40;66.30;;;;;;5085692;28;20032;-35
2023/11/18 02:35:58;;;;;;;2.40;1.35;;;19.40;66.40;;;;;;5065836;28;20044;-34
2023/11/18 02:38:35;;;;;;;1.95;1.30;;;19.40;66.30;;;;;;5098023;28;20035;-34
2023/11/18 02:41:06;;;;;;;1.92;1.45;;;19.40;66.30;;;;;;5071311;28;20033;-35
2023/11/18 02:43:33;;;;;;;2.25;1.52;;;19.40;66.30;;;;;;5097775;28;20167;-35
2023/11/18 02:46:00;;;;;;;1.60;1.23;;;19.30;66.20;;;;;;5085865;28;20032;-35
2023/11/18 02:48:28;;;;;;;1.83;1.33;;;19.30;66.20;;;;;;5048266;28;20058;-35
2023/11/18 02:50:54;;;;;;;;;;;19.40;66.30;;;;;;5082139;28;20039;-35
2023/11/18 02:53:21;;;;;;;2.92;1.42;;;19.40;66.30;;;;;;5081942;28;19905;-35
2023/11/18 02:55:47;;;;;;;2.33;1.40;;;19.30;66.20;;;;;;5081798;28;20033;-35
2023/11/18 02:58:14;;;;;;;2.60;1.35;;;19.30;66.20;;;;;;5081594;28;20036;-35
2023/11/18 03:00:43;;;;;;;2.40;1.40;;;19.30;66.30;;;;;;5081494;28;20036;-36
2023/11/18 03:03:10;;;;;;;2.35;1.40;;;19.30;66.30;;;;;;5081524;28;20115;-35
2023/11/18 03:05:38;;;;;;;2.28;1.50;;;19.30;66.30;;;;;;5081455;28;20059;-36
2023/11/18 03:08:08;;;;;;;3.13;1.40;;;19.30;66.30;;;;;;5082976;28;20071;-35
2023/11/18 03:10:35;;;;;;;2.20;1.40;;;19.30;66.30;;;;;;5074583;28;20032;-35
2023/11/18 03:13:02;;;;;;;1.85;1.20;;;19.30;66.30;;;;;;5072032;28;20124;-35
2023/11/18 03:15:29;;;;;;;2.10;1.48;;;19.30;66.30;;;;;;5075534;28;20048;-35
2023/11/18 03:17:56;;;;;;;3.15;1.40;;;19.30;66.30;;;;;;5078641;28;20042;-35
2023/11/18 03:20:23;;;;;;;2.35;1.50;;;19.30;66.30;;;;;;5083673;28;20033;-35
2023/11/18 03:22:51;;;;;;;2.38;1.40;;;19.20;66.30;;;;;;5072747;28;20040;-35
2023/11/18 03:25:19;;;;;;;1.98;1.38;;;19.30;66.30;;;;;;5073153;28;20076;-35
2023/11/18 03:27:46;;;;;;;1.75;1.33;;;19.20;66.30;;;;;;5075198;28;20088;-35
2023/11/18 03:30:13;;;;;;;2.00;1.45;;;19.20;66.30;;;;;;5083386;28;20092;-36
2023/11/18 03:32:42;;;;;;;1.58;1.35;;;19.20;66.30;;;;;;5074575;28;20044;-36
2023/11/18 03:35:09;;;;;;;2.50;1.52;;;19.20;66.30;;;;;;5082568;28;20025;-35
2023/11/18 03:37:38;;;;;;;2.40;1.40;;;19.20;66.40;;;;;;5081020;28;20033;-35
2023/11/18 03:40:09;;;;;;;2.60;1.67;;;19.20;66.40;;;;;;5076380;28;20032;-35
2023/11/18 03:42:36;;;;;;;1.90;1.30;;;19.20;66.30;;;;;;5066603;28;20053;-35
2023/11/18 03:45:03;;;;;;;2.22;1.50;;;19.20;66.40;;;;;;5083434;28;20028;-35
2023/11/18 03:47:30;;;;;;;2.28;1.50;;;19.20;66.40;;;;;;5073766;28;20032;-35
2023/11/18 03:49:56;;;;;;;;;;;19.20;66.40;;;;;;5073180;28;20043;-36
2023/11/18 03:52:23;;;;;;;2.20;1.20;;;19.20;66.40;;;;;;5071972;28;19911;-36
2023/11/18 03:54:49;;;;;;;2.13;1.30;;;19.10;66.40;;;;;;5069747;28;20035;-36
2023/11/18 03:57:15;;;;;;;3.45;1.67;;;19.20;66.40;;;;;;5075160;28;20032;-36
2023/11/18 03:59:42;;;;;;;2.33;1.70;;;19.20;66.40;;;;;;5072820;28;20035;-35
2023/11/18 04:02:11;;;;;;;3.35;1.60;;;19.10;66.40;;;;;;5076981;28;20024;-36
2023/11/18 04:04:38;;;;;;;2.08;1.42;;;19.20;66.50;;;;;;5080657;28;20054;-36
2023/11/18 04:07:04;;;;;;;1.85;1.67;;;19.10;66.40;;;;;;5082521;28;20033;-35
2023/11/18 04:09:30;;;;;;;2.80;1.52;;;19.10;66.50;;;;;;5081231;28;20050;-35
2023/11/18 04:11:56;;;;;;;3.73;1.67;;;19.10;66.40;;;;;;5082277;28;20036;-35
2023/11/18 04:14:23;;;;;;;1.73;1.48;;;19.10;66.40;;;;;;5086420;28;20024;-36
2023/11/18 04:16:49;;;;;;;3.17;1.50;;;19.10;66.50;;;;;;5081741;28;20051;-35
2023/11/18 04:19:15;;;;;;;2.30;1.50;;;19.10;66.50;;;;;;5082483;28;20123;-35
2023/11/18 04:21:41;;;;;;;2.72;1.73;;;19.10;66.50;;;;;;5081648;28;20059;-35
2023/11/18 04:24:08;;;;;;;2.00;1.70;;;19.10;66.50;;;;;;5082459;28;20036;-35
2023/11/18 04:26:34;;;;;;;2.17;1.40;;;19.10;66.50;;;;;;5080686;28;20043;-35
2023/11/18 04:29:00;;;;;;;2.65;1.52;;;19.10;66.50;;;;;;5070415;28;20039;-35
2023/11/18 04:31:26;;;;;;;2.55;1.55;;;19.10;66.50;;;;;;5078362;28;20050;-35
2023/11/18 04:33:55;;;;;;;2.05;1.50;;;19.00;66.50;;;;;;5081541;28;20064;-36
2023/11/18 04:36:22;;;;;;;2.28;1.60;;;19.00;66.50;;;;;;5082463;28;20033;-36
2023/11/18 04:38:48;;;;;;;1.77;1.30;;;19.00;66.50;;;;;;5080472;28;20028;-36
2023/11/18 04:41:15;;;;;;;2.58;1.67;;;19.00;66.50;;;;;;5082632;28;20028;-36
2023/11/18 04:43:41;;;;;;;1.63;1.30;;;19.00;66.50;;;;;;5081570;28;20079;-35
2023/11/18 04:46:08;;;;;;;2.67;1.50;;;19.00;66.50;;;;;;5089217;28;20032;-35
2023/11/18 04:48:34;;;;;;;2.45;1.45;;;19.00;66.50;;;;;;5080361;28;20333;-35
2023/11/18 04:51:01;;;;;;;3.15;1.60;;;19.00;66.50;;;;;;5081976;28;20116;-35
2023/11/18 04:53:27;;;;;;;1.70;1.48;;;19.00;66.60;;;;;;5081849;28;20044;-35
2023/11/18 04:55:53;;;;;;;2.97;1.77;;;19.00;66.50;;;;;;5074166;28;20108;-35
2023/11/18 04:58:19;;;;;;;2.08;1.50;;;19.00;66.50;;;;;;5080528;28;20071;-35
2023/11/18 05:00:45;;;;;;;3.05;1.50;;;18.90;66.50;;;;;;5080370;28;20919;-35
2023/11/18 05:03:12;;;;;;;2.10;1.33;;;19.00;66.50;;;;;;5082494;28;20037;-35
2023/11/18 05:05:39;;;;;;;2.65;1.85;;;19.00;66.60;;;;;;5085119;28;20055;-35
2023/11/18 05:08:06;;;;;;;2.55;1.70;;;19.00;66.60;;;;;;5078933;28;20096;-35
2023/11/18 05:10:33;;;;;;;2.83;1.65;;;19.00;66.70;;;;;;5081274;28;20031;-39
2023/11/18 05:13:00;;;;;;;2.05;1.45;;;18.90;66.50;;;;;;5069817;28;20036;-35
2023/11/18 05:15:26;;;;;;;2.40;1.63;;;18.90;66.60;;;;;;5082476;28;20139;-35
2023/11/18 05:17:53;;;;;;;2.53;1.77;;;18.90;66.60;;;;;;5081826;28;20032;-35
2023/11/18 05:20:19;;;;;;;2.53;1.48;;;18.90;66.60;;;;;;5083325;28;20032;-35
2023/11/18 05:22:45;;;;;;;2.43;1.47;;;18.90;66.60;;;;;;5081168;28;20789;-35
2023/11/18 05:25:11;;;;;;;2.03;1.70;;;18.90;66.60;;;;;;5081773;28;20029;-35
2023/11/18 05:27:40;;;;;;;2.75;1.40;;;18.90;66.60;;;;;;5081599;28;20040;-35
2023/11/18 05:30:08;;;;;;;1.85;1.58;;;18.90;66.60;;;;;;5081216;28;20055;-35
2023/11/18 05:32:34;;;;;;;4.20;1.60;;;18.90;66.70;;;;;;5081269;28;20058;-35
2023/11/18 05:35:00;;;;;;;2.33;1.83;;;18.90;66.70;;;;;;5081928;28;20024;-35
2023/11/18 05:37:29;;;;;;;3.30;1.58;;;18.90;66.70;;;;;;5077336;28;20033;-35
2023/11/18 05:40:06;;;;;;;2.15;1.65;;;18.90;66.70;;;;;;5085212;28;20035;-35
2023/11/18 05:42:36;;;;;;;2.17;1.52;;;18.80;66.70;;;;;;5085616;28;20051;-35
2023/11/18 05:45:04;;;;;;;3.35;1.80;;;18.80;66.70;;;;;;5089662;28;20048;-35
2023/11/18 05:47:30;;;;;;;1.63;1.50;;;18.80;66.70;;;;;;5085054;28;20029;-36
2023/11/18 05:49:56;;;;;;;2.80;1.80;;;18.80;66.70;;;;;;5085466;28;20032;-36
2023/11/18 05:52:23;;;;;;;2.20;1.50;;;18.80;66.70;;;;;;5085696;28;20029;-35
2023/11/18 05:54:49;;;;;;;3.38;1.50;;;18.80;66.70;;;;;;5084977;28;20039;-34
2023/11/18 05:57:18;;;;;;;2.22;1.50;;;18.80;66.70;;;;;;5085851;28;20025;-35
2023/11/18 05:59:46;;;;;;;3.35;1.80;;;18.80;66.70;;;;;;5085044;28;20037;-35
2023/11/18 06:02:31;;;;;;;2.65;1.60;;;18.80;66.70;;;;;;5062347;28;20044;-35
2023/11/18 06:04:57;;;;;;;2.25;1.35;;;18.80;66.70;;;;;;5056183;28;20055;-35
2023/11/18 06:07:23;;;;;;;1.55;1.20;;;18.80;66.70;;;;;;5062998;28;20033;-35
2023/11/18 06:09:49;;;;;;;3.33;1.80;;;18.80;66.70;;;;;;5062472;28;20040;-35
2023/11/18 06:12:17;;;;;;;2.83;1.60;;;18.80;66.70;;;;;;5063170;28;20024;-35
2023/11/18 06:14:44;;;;;;;1.83;1.42;;;18.80;66.70;;;;;;5066625;28;20048;-35
2023/11/18 06:17:13;;;;;;;;;;;18.80;66.70;;;;;;5063069;28;20036;-35
2023/11/18 06:19:39;;;;;;;2.88;1.90;;;18.80;66.70;;;;;;5062422;28;19981;-35
2023/11/18 06:22:05;;;;;;;3.95;1.75;;;18.80;66.70;;;;;;5062735;28;20036;-35
2023/11/18 06:24:32;;;;;;;3.22;2.03;;;18.80;66.80;;;;;;5062307;28;20017;-36
2023/11/18 06:26:59;;;;;;;2.33;1.60;;;18.70;66.70;;;;;;5062548;28;20040;-35
2023/11/18 06:29:25;;;;;;;2.70;1.63;;;18.70;66.70;;;;;;5062232;28;20052;-35
2023/11/18 06:31:52;;;;;;;2.95;1.80;;;18.70;66.70;;;;;;5061482;28;20668;-35
2023/11/18 06:34:20;;;;;;;2.58;1.60;;;18.70;66.80;;;;;;5060362;28;20048;-35
2023/11/18 06:36:46;;;;;;;2.40;1.40;;;18.70;66.80;;;;;;5045963;28;20060;-35
2023/11/18 06:39:13;;;;;;;2.45;1.70;;;18.70;66.80;;;;;;5069712;28;20059;-35
2023/11/18 06:41:48;;;;;;;3.97;1.73;;;18.70;66.80;;;;;;5083469;28;20128;-35
2023/11/18 06:44:18;;;;;;;2.88;1.73;;;18.70;66.80;;;;;;5085784;28;20936;-35
2023/11/18 06:46:44;;;;;;;2.78;1.75;;;18.70;66.80;;;;;;5090188;28;20024;-35
2023/11/18 06:49:16;;;;;;;1.60;1.50;;;18.70;66.80;;;;;;5082886;28;20032;-35
2023/11/18 06:51:42;;;;;;;3.42;1.75;;;18.70;66.80;;;;;;5083013;28;20032;-35
2023/11/18 06:54:08;;;;;;;2.65;1.70;;;18.70;66.80;;;;;;5083851;28;20028;-35
2023/11/18 06:56:38;;;;;;;2.13;1.65;;;18.70;66.80;;;;;;5082374;28;20063;-35
2023/11/18 06:59:07;;;;;;;3.40;1.50;;;18.70;66.80;;;;;;5075529;28;20033;-35
2023/11/18 07:01:35;;;;;;;2.35;1.70;;;18.70;66.90;;;;;;5083131;28;20045;-35
2023/11/18 07:04:01;;;;;;;2.80;1.92;;;18.70;66.90;;;;;;5088603;28;20029;-35
2023/11/18 07:06:27;;;;;;;2.40;1.70;;;18.70;66.90;;;;;;5083068;28;20056;-35
2023/11/18 07:08:54;;;;;;;2.13;1.60;;;18.70;66.90;;;;;;5078105;28;20040;-35
2023/11/18 07:11:20;;;;;;;;;;;18.60;66.80;;;;;;5081785;28;20029;-35
2023/11/18 07:13:47;;;;;;;2.40;1.73;;;18.60;66.90;;;;;;5082165;28;19955;-35
2023/11/18 07:16:14;;;;;;;2.70;1.60;;;18.60;66.80;;;;;;5085469;28;20109;-35
2023/11/18 07:18:42;;;;;;;2.92;1.80;;;18.60;66.90;;;;;;5082443;28;20082;-35
2023/11/18 07:21:09;;;;;;;2.42;1.85;;;18.60;66.90;;;;;;5084032;28;20032;-35
2023/11/18 07:23:36;;;;;;;2.88;1.90;;;18.60;66.90;;;;;;5082306;28;20044;-35
2023/11/18 07:26:03;;;;;;;3.35;1.90;;;18.60;66.90;;;;;;5081375;28;20031;-35
2023/11/18 07:28:31;;;;;;;1.60;1.50;;;18.60;67.00;;;;;;5082519;28;20055;-35
2023/11/18 07:30:58;;;;;;;2.95;1.70;;;18.60;66.90;;;;;;5083137;28;20028;-35
2023/11/18 07:33:24;;;;;;;2.15;1.63;;;18.60;66.90;;;;;;5082321;28;20058;-34
2023/11/18 07:35:50;;;;;;;2.67;1.50;;;18.60;66.90;;;;;;5082284;28;20169;-35
2023/11/18 07:38:17;;;;;;;3.45;1.80;;;18.60;67.00;;;;;;5082759;28;20060;-35
2023/11/18 07:40:45;;;;;;;2.75;1.80;;;18.60;67.00;;;;;;5081468;28;20024;-35
2023/11/18 07:43:17;;;;;;;2.75;1.65;;;18.60;67.00;;;;;;5082275;28;20053;-35
2023/11/18 07:45:43;;;;;;;2.25;1.50;;;18.60;67.00;;;;;;5086233;28;20036;-35
2023/11/18 07:48:11;;;;;;;3.25;1.85;;;18.50;66.90;;;;;;5083017;28;20068;-34
2023/11/18 07:50:41;;;;;;;3.83;1.90;;;18.50;67.00;;;;;;5081214;28;20029;-35
2023/11/18 07:53:07;;;;;;;3.28;1.73;;;18.50;67.00;;;;;;5076552;28;20041;-35
2023/11/18 07:55:42;;;;;;;1.83;1.55;;;18.50;67.00;;;;;;5075828;28;20024;-35
2023/11/18 07:58:12;;;;;;;1.90;1.55;;;18.50;67.00;;;;;;5083204;28;20036;-35
2023/11/18 08:00:38;;;;;;;2.67;1.88;;;18.50;67.00;;;;;;5081397;28;20427;-35
2023/11/18 08:03:11;;;;;;;3.90;1.90;;;18.50;67.00;;;;;;5082998;28;20036;-35
2023/11/18 08:05:39;;;;;;;1.83;1.50;;;18.50;67.00;;;;;;5082554;28;20039;-35
2023/11/18 08:08:07;;;;;;;3.70;1.80;;;18.50;67.00;;;;;;5082633;28;20040;-35
2023/11/18 08:10:37;;;;;;;3.13;1.70;;;18.50;67.00;;;;;;5082359;28;20028;-35
2023/11/18 08:13:07;;;;;;;2.78;1.80;;;18.50;67.00;;;;;;5082607;28;20040;-35
2023/11/18 08:15:35;;;;;;;2.25;1.70;;;18.50;67.00;;;;;;5084390;28;20063;-35
2023/11/18 08:18:01;;;;;;;;;;;18.50;67.10;;;;;;5083385;28;20039;-35
2023/11/18 08:20:27;;;;;;;3.17;1.83;;;18.40;67.10;;;;;;5082779;28;19912;-35
2023/11/18 08:22:55;;;;;;;2.38;1.70;;;18.40;67.10;;;;;;5082947;28;20023;-35
2023/11/18 08:25:21;;;;;;;2.40;1.80;;;18.40;67.10;;;;;;5082887;28;20037;-35
2023/11/18 08:27:47;;;;;;;2.75;1.90;;;18.40;67.10;;;;;;5081692;28;20028;-36
2023/11/18 08:30:14;;;;;;;3.42;1.85;;;18.40;67.10;;;;;;5082715;28;20049;-35
2023/11/18 08:32:43;;;;;;;2.80;1.90;;;18.40;67.10;;;;;;5082035;28;20036;-35
2023/11/18 08:35:12;;;;;;;3.80;2.10;;;18.40;67.10;;;;;;5082498;28;20036;-35
2023/11/18 08:38:00;;;;;;;2.25;1.77;;;18.40;67.10;;;;;;5074196;28;20106;-35
2023/11/18 08:40:26;;;;;;;3.10;1.90;;;18.40;67.10;;;;;;5040236;28;20044;-35
2023/11/18 08:42:55;;;;;;;2.45;1.70;;;18.40;67.20;;;;;;5039698;28;20095;-35
2023/11/18 08:45:32;;;;;;;3.40;1.70;;;18.40;67.20;;;;;;5044010;28;20036;-36
2023/11/18 08:48:01;;;;;;;2.50;1.65;;;18.40;67.30;;;;;;5040259;28;20580;-35
2023/11/18 08:50:30;;;;;;;2.95;1.60;;;18.30;67.20;;;;;;5039866;28;20698;-35
2023/11/18 08:52:59;;;;;;;3.38;1.65;;;18.40;67.20;;;;;;5040283;28;20108;-35
2023/11/18 08:55:50;;;;;;;1.90;1.70;;;18.30;67.20;;;;;;5036759;28;20021;-35
2023/11/18 08:58:19;;;;;;;2.40;1.77;;;18.30;67.30;;;;;;5038842;28;20805;-35
2023/11/18 09:00:53;;;;;;;3.10;1.85;;;18.30;67.30;;;;;;5039601;28;20088;-35
2023/11/18 09:03:34;;;;;;;3.60;2.00;;;18.30;67.20;;;;;;5039762;28;20033;-35
2023/11/18 09:06:04;;;;;;;1.95;1.73;;;18.30;67.30;;;;;;5040118;28;20403;-36
2023/11/18 09:08:35;;;;;;;3.22;1.83;;;18.30;67.30;;;;;;5039874;28;20042;-35
2023/11/18 09:11:02;;;;;;;2.83;1.88;;;18.30;67.30;;;;;;5040561;28;20147;-35
2023/11/18 09:13:31;;;;;;;3.47;1.75;;;18.30;67.30;;;;;;5043253;28;20033;-35
2023/11/18 09:16:15;;;;;;;2.95;2.03;;;18.30;67.30;;;;;;5048023;28;20160;-35
2023/11/18 09:18:44;;;;;;;3.83;1.90;;;18.30;67.30;;;;;;5082996;28;20040;-35
2023/11/18 09:21:14;;;;;;;3.10;1.70;;;18.20;67.30;;;;;;5085378;28;20024;-35
2023/11/18 09:23:41;;;;;;;2.22;1.95;;;18.20;67.30;;;;;;5084669;28;20029;-35
2023/11/18 09:26:08;;;;;;;2.50;1.90;;;18.20;67.30;;;;;;5085122;28;20020;-35
2023/11/18 09:28:37;;;;;;;2.70;1.83;;;18.20;67.30;;;;;;5084787;28;20492;-36
2023/11/18 09:31:04;;;;;;;2.13;1.70;;;18.20;67.30;;;;;;5085194;28;20020;-35
2023/11/18 09:33:34;;;;;;;2.33;1.70;;;18.20;67.40;;;;;;5082952;28;20576;-35
2023/11/18 09:36:07;;;;;;;3.08;1.77;;;18.20;67.40;;;;;;5079561;28;20037;-35
2023/11/18 09:38:36;;;;;;;3.25;1.90;;;18.20;67.40;;;;;;5079681;28;20047;-34
2023/11/18 09:41:06;;;;;;;2.90;1.98;;;18.20;67.40;;;;;;5084986;28;20479;-35
2023/11/18 09:43:45;;;;;;;2.45;1.90;;;18.20;67.40;;;;;;5083583;28;20048;-35
2023/11/18 09:46:12;;;;;;;2.80;1.90;;;18.20;67.40;;;;;;5089106;28;20036;-35
2023/11/18 09:49:14;;;;;;;2.50;1.60;;;18.20;67.40;;;;;;5084281;28;20044;-35
2023/11/18 09:51:44;;;;;;;3.00;1.88;;;18.10;67.40;;;;;;5067966;28;20055;-35
2023/11/18 09:54:44;;;;;;;2.63;1.95;;;18.10;67.40;;;;;;5084681;28;20092;-35
2023/11/18 09:57:34;;;;;;;2.63;1.85;;;18.10;67.40;;;;;;5077387;28;20119;-35
2023/11/18 10:00:50;;;;;;;3.13;2.00;;;18.10;67.40;;;;;;5070718;28;20064;-35
2023/11/18 10:02:51;;;;;;;2.20;1.90;;;18.10;67.40;;;;;;5070426;28;20037;-35
2023/11/18 10:05:20;;;;;;;3.00;1.67;;;18.10;67.40;;;;;;5078227;28;20025;-35
2023/11/18 10:07:49;;;;;;;2.60;2.00;;;18.10;67.40;;;;;;5077331;28;20046;-35
2023/11/18 10:10:17;;;;;;;2.90;1.95;;;18.10;67.50;;;;;;5072214;28;20549;-34
2023/11/18 10:12:44;;;;;;;3.17;2.20;;;18.00;67.40;;;;;;5083896;28;20047;-34
2023/11/18 10:15:17;;;;;;;2.90;1.70;;;18.00;67.40;;;;;;5080045;28;20070;-35
2023/11/18 10:18:28;;;;;;;2.70;1.83;;;18.00;67.50;;;;;;5084695;28;20033;-34
2023/11/18 10:20:42;;;;;;;2.70;1.92;;;18.00;67.50;;;;;;5080202;28;20051;-36
2023/11/18 10:23:11;;;;;;;3.20;1.88;;;18.00;67.50;;;;;;5077556;28;20092;-35
2023/11/18 10:25:56;;;;;;;3.42;1.90;;;18.00;67.50;;;;;;5083755;28;20494;-35
2023/11/18 10:28:29;;;;;;;3.58;2.00;;;18.00;67.50;;;;;;5084253;28;20040;-35
2023/11/18 10:31:03;;;;;;;4.57;2.10;;;18.00;67.50;;;;;;5084445;28;20028;-35
2023/11/18 10:33:32;;;;;;;2.75;1.95;;;18.00;67.50;;;;;;5084256;28;20036;-35
2023/11/18 10:36:03;;;;;;;2.38;1.90;;;17.90;67.60;;;;;;5077733;28;20106;-35
2023/11/18 10:38:30;;;;;;;3.25;2.00;;;18.00;67.60;;;;;;5078523;28;20099;-35
2023/11/18 10:40:57;;;;;;;3.78;2.08;;;17.90;67.50;;;;;;5084671;28;20047;-35
2023/11/18 10:43:28;;;;;;;2.97;1.75;;;17.90;67.60;;;;;;5078652;28;20283;-35
2023/11/18 10:46:13;;;;;;;2.70;1.95;;;17.90;67.60;;;;;;5088275;28;20086;-35
2023/11/18 10:48:49;;;;;;;2.53;1.92;;;17.90;67.60;;;;;;5083639;28;20066;-35
2023/11/18 10:51:19;;;;;;;2.92;1.90;;;17.90;67.60;;;;;;5076438;28;20021;-37
2023/11/18 10:53:58;;;;;;;3.38;2.42;;;17.90;67.60;;;;;;5082590;28;20040;-35
2023/11/18 10:56:28;;;;;;;2.25;1.85;;;17.90;67.60;;;;;;5086141;28;20028;-35
2023/11/18 10:59:06;;;;;;;2.83;1.92;;;17.90;67.60;;;;;;5084054;28;20037;-35
2023/11/18 11:01:42;;;;;;;3.65;2.28;;;17.90;68.40;;;;;;5090448;28;20076;-35
2023/11/18 11:04:20;;;;;;;2.85;1.95;;;17.90;67.60;;;;;;5077768;28;20028;-35
2023/11/18 11:06:56;;;;;;;3.03;2.35;;;17.80;67.60;;;;;;5082690;28;20037;-35
2023/11/18 11:09:28;;;;;;;2.80;2.20;;;17.80;67.70;;;;;;5078992;28;20032;-35
2023/11/18 11:12:03;;;;;;;2.75;2.20;;;17.80;67.70;;;;;;5081542;28;20032;-35
2023/11/18 11:14:41;;;;;;;3.33;2.20;;;17.80;67.70;;;;;;5086755;28;20047;-35
2023/11/18 11:17:11;;;;;;;3.03;2.10;;;17.80;67.70;;;;;;5077262;28;20044;-35
2023/11/18 11:20:11;;;;;;;2.13;1.67;;;17.80;67.70;;;;;;5082061;28;20040;-35
2023/11/18 11:22:38;;;;;;;2.55;2.00;;;17.80;67.70;;;;;;5082926;28;20040;-35
2023/11/18 11:25:21;;;;;;;;;;;17.80;67.70;;;;;;5081115;28;20032;-35
2023/11/18 11:27:59;;;;;;;2.67;1.80;;;17.80;67.70;;;;;;5081639;28;20297;-35
2023/11/18 11:30:31;;;;;;;;;;;17.80;67.70;;;;;;5076784;28;20032;-35
2023/11/18 11:33:40;;;;;;;3.38;2.22;;;17.70;67.70;;;;;;5090728;28;20387;-35
2023/11/18 11:36:16;;;;;;;2.55;2.13;;;17.70;68.40;;;;;;5080382;28;20813;-35
2023/11/18 11:38:46;;;;;;;2.58;2.10;;;17.70;67.70;;;;;;5075036;28;20039;-35
2023/11/18 11:41:19;;;;;;;2.75;2.15;;;17.70;67.80;;;;;;5074983;28;20045;-35
2023/11/18 11:43:48;;;;;;;3.95;2.03;;;17.70;68.40;;;;;;5073483;28;20071;-35
2023/11/18 11:46:18;;;;;;;2.53;1.85;;;17.70;67.80;;;;;;5082341;28;20075;-35
2023/11/18 11:48:44;;;;;;;4.68;2.38;;;17.70;67.80;;;;;;5082011;28;20895;-35
2023/11/18 11:51:26;;;;;;;2.63;1.90;;;17.70;67.80;;;;;;5082622;28;20056;-35
2023/11/18 11:54:18;;;;;;;4.53;2.15;;;17.70;67.80;;;;;;5081410;28;20074;-36
2023/11/18 11:57:06;;;;;;;2.70;2.08;;;17.70;67.80;;;;;;5081959;28;20665;-39
2023/11/18 11:59:44;;;;;;;3.65;2.17;;;17.60;67.80;;;;;;5082704;28;20028;-34
2023/11/18 12:02:15;;;;;;;3.05;2.20;;;17.60;67.80;;;;;;5076942;28;20066;-35
2023/11/18 12:05:06;;;;;;;3.67;2.35;;;17.60;67.80;;;;;;5080863;28;20025;-35
2023/11/18 12:07:38;;;;;;;3.78;2.15;;;17.60;67.90;;;;;;5081266;28;20385;-34
2023/11/18 12:10:07;;;;;;;3.38;2.00;;;17.60;67.80;;;;;;5063131;28;20098;-34
2023/11/18 12:12:33;;;;;;;3.58;2.30;;;17.60;67.90;;;;;;5077558;28;20028;-34
2023/11/18 12:15:11;;;;;;;3.33;2.33;;;17.60;67.90;;;;;;5086400;28;20050;-35
2023/11/18 12:17:55;;;;;;;3.80;2.42;;;17.60;67.90;;;;;;5081303;28;20029;-34
2023/11/18 12:20:42;;;;;;;4.25;2.00;;;17.60;68.00;;;;;;5082073;28;20109;-35
2023/11/18 12:23:14;;;;;;;2.78;1.88;;;17.50;67.90;;;;;;5082555;28;20028;-35
2023/11/18 12:25:41;;;;;;;2.97;2.00;;;17.50;67.90;;;;;;5082104;28;20029;-35
2023/11/18 12:28:15;;;;;;;4.18;1.92;;;17.50;67.90;;;;;;5082129;28;20044;-35
2023/11/18 12:31:27;;;;;;;2.42;1.98;;;17.50;67.90;;;;;;5082057;28;20363;-35
2023/11/18 12:33:51;;;;;;;3.60;2.22;;;17.50;67.90;;;;;;5081379;28;20052;-35
2023/11/18 12:36:43;;;;;;;3.60;2.22;;;17.50;68.00;;;;;;5077071;28;20028;-34
2023/11/18 12:39:16;;;;;;;2.47;2.15;;;17.50;68.00;;;;;;5081517;28;20040;-35
2023/11/18 12:41:43;;;;;;;3.22;2.22;;;17.50;68.10;;;;;;5088248;28;20060;-35
2023/11/18 12:44:21;;;;;;;2.80;2.05;;;17.50;68.00;;;;;;5083419;28;20049;-35
2023/11/18 12:47:14;;;;;;;2.85;2.00;;;17.50;68.00;;;;;;5080700;28;20061;-35
2023/11/18 12:49:41;;;;;;;3.08;2.08;;;17.40;68.00;;;;;;5081118;28;20041;-35
2023/11/18 12:52:18;;;;;;;2.90;2.20;;;17.40;68.00;;;;;;5082163;28;20054;-35
2023/11/18 12:54:50;;;;;;;3.05;2.38;;;17.40;68.00;;;;;;5077633;28;20040;-35
2023/11/18 12:57:22;;;;;;;2.67;1.92;;;17.40;68.00;;;;;;5082117;28;20103;-35
2023/11/18 12:59:49;;;;;;;2.85;2.00;;;17.40;67.90;;;;;;5081414;28;20034;-36
2023/11/18 13:02:19;;;;;;;;;;;17.40;68.00;;;;;;5082607;28;20037;-35
2023/11/18 13:04:49;;;;;;;2.42;1.90;;;17.40;68.00;;;;;;5078328;28;20505;-35